Terminal Aerodrome Forecast
Issued by NWS Sioux Falls, SD

Home | Current Version | Previous Version | Graphics & Text | Print | Product List | Glossary Off
Versions: 1 2 3 4 5 6 7 8 9 10 11 12 13 14 15 16 17 18 19 20 21 22

000
FTUS43 KFSD 221934 AAA
TAFHON
TAF AMD
KHON 221934Z 2220/2318 04011KT P6SM OVC005
     FM230000 08009KT P6SM OVC005
     FM230400 08010KT 4SM BR OVC003
     FM231400 11012KT 6SM BR OVC008
     FM231600 11013KT P6SM BKN035=

USA.gov is the U.S. government's official web portal to all federal, state and local government web resources and services.